sensor_id;sensor_type;location;lat;lon;timestamp;P1;durP1;ratioP1;P2;durP2;ratioP2
70866;SDS011;58487;53.474;49.470;2023-02-08T00:49:55;41.87;;;13.37;;
70866;SDS011;58487;53.474;49.470;2023-02-08T00:52:21;28.42;;;10.57;;
70866;SDS011;58487;53.474;49.470;2023-02-08T00:54:48;21.63;;;9.30;;
70866;SDS011;58487;53.474;49.470;2023-02-08T00:57:14;42.88;;;13.93;;
70866;SDS011;58487;53.474;49.470;2023-02-08T00:59:40;44.45;;;16.10;;
70866;SDS011;58487;53.474;49.470;2023-02-08T01:02:07;36.37;;;12.73;;
70866;SDS011;58487;53.474;49.470;2023-02-08T01:04:34;42.55;;;13.40;;
70866;SDS011;58487;53.474;49.470;2023-02-08T01:07:00;36.83;;;12.75;;
70866;SDS011;58487;53.474;49.470;2023-02-08T01:09:26;42.75;;;13.57;;
70866;SDS011;58487;53.474;49.470;2023-02-08T01:11:52;32.03;;;12.10;;
70866;SDS011;58487;53.474;49.470;2023-02-08T01:14:18;24.17;;;8.70;;
70866;SDS011;58487;53.474;49.470;2023-02-08T01:16:44;16.27;;;7.10;;
70866;SDS011;58487;53.474;49.470;2023-02-08T01:19:10;20.60;;;7.00;;
70866;SDS011;58487;53.474;49.470;2023-02-08T01:21:37;13.73;;;6.13;;
70866;SDS011;58487;53.474;49.470;2023-02-08T01:24:05;28.10;;;8.98;;
70866;SDS011;58487;53.474;49.470;2023-02-08T01:26:31;26.90;;;9.40;;
70866;SDS011;58487;53.474;49.470;2023-02-08T01:28:58;21.85;;;10.82;;
70866;SDS011;58487;53.474;49.470;2023-02-08T01:31:26;25.75;;;11.35;;
70866;SDS011;58487;53.474;49.470;2023-02-08T01:33:54;43.28;;;11.13;;
70866;SDS011;58487;53.474;49.470;2023-02-08T01:36:22;20.60;;;8.98;;
70866;SDS011;58487;53.474;49.470;2023-02-08T01:38:49;23.70;;;9.43;;
70866;SDS011;58487;53.474;49.470;2023-02-08T01:41:19;29.50;;;10.82;;
70866;SDS011;58487;53.474;49.470;2023-02-08T01:46:40;32.25;;;12.23;;
70866;SDS011;58487;53.474;49.470;2023-02-08T01:52:00;42.17;;;12.47;;
70866;SDS011;58487;53.474;49.470;2023-02-08T01:54:31;36.65;;;13.10;;
70866;SDS011;58487;53.474;49.470;2023-02-08T01:57:02;33.67;;;12.02;;
70866;SDS011;58487;53.474;49.470;2023-02-08T01:59:33;37.00;;;11.80;;
70866;SDS011;58487;53.474;49.470;2023-02-08T02:02:03;23.77;;;9.73;;
70866;SDS011;58487;53.474;49.470;2023-02-08T02:04:34;38.23;;;12.40;;
70866;SDS011;58487;53.474;49.470;2023-02-08T02:07:00;28.65;;;10.98;;
70866;SDS011;58487;53.474;49.470;2023-02-08T02:09:35;36.53;;;12.40;;
70866;SDS011;58487;53.474;49.470;2023-02-08T02:12:07;50.40;;;15.05;;
70866;SDS011;58487;53.474;49.470;2023-02-08T02:14:34;26.40;;;8.75;;
70866;SDS011;58487;53.474;49.470;2023-02-08T02:17:01;29.13;;;10.73;;
70866;SDS011;58487;53.474;49.470;2023-02-08T02:22:41;39.97;;;12.13;;
70866;SDS011;58487;53.474;49.470;2023-02-08T02:33:59;31.13;;;11.70;;
70866;SDS011;58487;53.474;49.470;2023-02-08T02:39:19;36.83;;;13.02;;
70866;SDS011;58487;53.474;49.470;2023-02-08T02:48:11;34.45;;;10.27;;
70866;SDS011;58487;53.474;49.470;2023-02-08T02:50:43;32.22;;;9.43;;
70866;SDS011;58487;53.474;49.470;2023-02-08T02:53:33;40.30;;;13.85;;
70866;SDS011;58487;53.474;49.470;2023-02-08T02:56:23;36.58;;;13.43;;
70866;SDS011;58487;53.474;49.470;2023-02-08T02:58:55;59.23;;;18.83;;
70866;SDS011;58487;53.474;49.470;2023-02-08T03:01:25;57.17;;;16.95;;
70866;SDS011;58487;53.474;49.470;2023-02-08T03:03:51;36.03;;;11.35;;
70866;SDS011;58487;53.474;49.470;2023-02-08T03:06:21;29.67;;;9.23;;
70866;SDS011;58487;53.474;49.470;2023-02-08T03:11:38;19.30;;;7.10;;
70866;SDS011;58487;53.474;49.470;2023-02-08T03:17:32;11.48;;;5.32;;
70866;SDS011;58487;53.474;49.470;2023-02-08T03:20:11;17.90;;;6.10;;
70866;SDS011;58487;53.474;49.470;2023-02-08T03:28:23;27.08;;;9.27;;
70866;SDS011;58487;53.474;49.470;2023-02-08T03:30:59;23.15;;;5.90;;
70866;SDS011;58487;53.474;49.470;2023-02-08T03:33:28;20.55;;;5.88;;
70866;SDS011;58487;53.474;49.470;2023-02-08T03:38:48;16.43;;;7.53;;
70866;SDS011;58487;53.474;49.470;2023-02-08T03:41:18;20.55;;;5.68;;
70866;SDS011;58487;53.474;49.470;2023-02-08T03:43:53;27.40;;;7.93;;
70866;SDS011;58487;53.474;49.470;2023-02-08T03:46:29;28.85;;;9.80;;
70866;SDS011;58487;53.474;49.470;2023-02-08T03:49:00;18.70;;;6.90;;
70866;SDS011;58487;53.474;49.470;2023-02-08T03:51:29;14.53;;;6.07;;
70866;SDS011;58487;53.474;49.470;2023-02-08T03:53:57;25.25;;;8.20;;
70866;SDS011;58487;53.474;49.470;2023-02-08T03:57:03;27.38;;;7.65;;
70866;SDS011;58487;53.474;49.470;2023-02-08T03:59:36;20.45;;;7.10;;
70866;SDS011;58487;53.474;49.470;2023-02-08T04:02:06;35.88;;;10.63;;
70866;SDS011;58487;53.474;49.470;2023-02-08T04:04:39;28.63;;;10.03;;
70866;SDS011;58487;53.474;49.470;2023-02-08T04:07:08;15.80;;;5.68;;
70866;SDS011;58487;53.474;49.470;2023-02-08T04:09:34;11.45;;;4.75;;
70866;SDS011;58487;53.474;49.470;2023-02-08T04:12:00;17.58;;;7.28;;
70866;SDS011;58487;53.474;49.470;2023-02-08T04:14:26;36.63;;;10.32;;
70866;SDS011;58487;53.474;49.470;2023-02-08T04:16:52;23.63;;;7.77;;
70866;SDS011;58487;53.474;49.470;2023-02-08T04:19:18;12.70;;;5.95;;
70866;SDS011;58487;53.474;49.470;2023-02-08T04:21:44;12.35;;;5.15;;
70866;SDS011;58487;53.474;49.470;2023-02-08T04:24:11;23.27;;;7.68;;
70866;SDS011;58487;53.474;49.470;2023-02-08T04:26:37;24.75;;;8.20;;
70866;SDS011;58487;53.474;49.470;2023-02-08T04:29:03;21.07;;;6.70;;
70866;SDS011;58487;53.474;49.470;2023-02-08T04:31:29;27.17;;;9.02;;
70866;SDS011;58487;53.474;49.470;2023-02-08T04:33:55;30.77;;;10.20;;
70866;SDS011;58487;53.474;49.470;2023-02-08T04:36:21;42.22;;;15.35;;
70866;SDS011;58487;53.474;49.470;2023-02-08T04:38:47;39.22;;;13.77;;
70866;SDS011;58487;53.474;49.470;2023-02-08T04:41:13;39.67;;;13.13;;
70866;SDS011;58487;53.474;49.470;2023-02-08T04:43:39;47.15;;;15.05;;
70866;SDS011;58487;53.474;49.470;2023-02-08T04:46:05;34.42;;;11.52;;
70866;SDS011;58487;53.474;49.470;2023-02-08T04:48:32;32.65;;;11.93;;
70866;SDS011;58487;53.474;49.470;2023-02-08T04:50:58;44.55;;;14.00;;
70866;SDS011;58487;53.474;49.470;2023-02-08T04:53:25;48.03;;;14.07;;
70866;SDS011;58487;53.474;49.470;2023-02-08T04:55:51;57.42;;;16.58;;
70866;SDS011;58487;53.474;49.470;2023-02-08T04:58:17;61.25;;;17.92;;
70866;SDS011;58487;53.474;49.470;2023-02-08T05:00:44;52.30;;;14.80;;
70866;SDS011;58487;53.474;49.470;2023-02-08T05:03:11;55.13;;;15.95;;
70866;SDS011;58487;53.474;49.470;2023-02-08T05:05:37;57.00;;;15.27;;
70866;SDS011;58487;53.474;49.470;2023-02-08T05:08:04;42.60;;;14.50;;
70866;SDS011;58487;53.474;49.470;2023-02-08T05:10:30;53.03;;;16.27;;
70866;SDS011;58487;53.474;49.470;2023-02-08T05:12:56;43.22;;;16.13;;
70866;SDS011;58487;53.474;49.470;2023-02-08T05:15:22;39.92;;;13.48;;
70866;SDS011;58487;53.474;49.470;2023-02-08T05:17:48;43.97;;;14.87;;
70866;SDS011;58487;53.474;49.470;2023-02-08T05:20:14;65.57;;;20.48;;
70866;SDS011;58487;53.474;49.470;2023-02-08T05:22:41;39.45;;;14.25;;
70866;SDS011;58487;53.474;49.470;2023-02-08T05:25:07;62.95;;;17.98;;
70866;SDS011;58487;53.474;49.470;2023-02-08T05:27:34;63.10;;;19.35;;
70866;SDS011;58487;53.474;49.470;2023-02-08T05:30:00;53.73;;;16.63;;
70866;SDS011;58487;53.474;49.470;2023-02-08T05:32:26;43.17;;;13.63;;
70866;SDS011;58487;53.474;49.470;2023-02-08T05:34:52;32.75;;;10.73;;
70866;SDS011;58487;53.474;49.470;2023-02-08T05:37:18;51.45;;;15.90;;
70866;SDS011;58487;53.474;49.470;2023-02-08T05:39:44;40.58;;;13.77;;
70866;SDS011;58487;53.474;49.470;2023-02-08T05:42:10;47.63;;;14.40;;
70866;SDS011;58487;53.474;49.470;2023-02-08T05:44:37;43.35;;;15.50;;
70866;SDS011;58487;53.474;49.470;2023-02-08T05:47:03;43.50;;;13.82;;
70866;SDS011;58487;53.474;49.470;2023-02-08T05:49:29;45.17;;;15.77;;
70866;SDS011;58487;53.474;49.470;2023-02-08T05:51:55;34.47;;;10.52;;
70866;SDS011;58487;53.474;49.470;2023-02-08T05:54:21;27.90;;;9.80;;
70866;SDS011;58487;53.474;49.470;2023-02-08T05:56:47;20.50;;;7.63;;
70866;SDS011;58487;53.474;49.470;2023-02-08T05:59:13;25.35;;;8.15;;
70866;SDS011;58487;53.474;49.470;2023-02-08T06:01:39;24.80;;;8.85;;
70866;SDS011;58487;53.474;49.470;2023-02-08T06:04:06;25.15;;;9.13;;
70866;SDS011;58487;53.474;49.470;2023-02-08T06:06:35;16.57;;;6.43;;
70866;SDS011;58487;53.474;49.470;2023-02-08T06:09:01;21.55;;;6.47;;
70866;SDS011;58487;53.474;49.470;2023-02-08T06:11:27;18.80;;;7.40;;
70866;SDS011;58487;53.474;49.470;2023-02-08T06:13:53;17.70;;;6.68;;
70866;SDS011;58487;53.474;49.470;2023-02-08T06:16:19;48.38;;;17.50;;
70866;SDS011;58487;53.474;49.470;2023-02-08T06:18:45;58.17;;;18.53;;
70866;SDS011;58487;53.474;49.470;2023-02-08T06:21:11;34.22;;;13.13;;
70866;SDS011;58487;53.474;49.470;2023-02-08T06:23:38;32.53;;;8.65;;
70866;SDS011;58487;53.474;49.470;2023-02-08T06:26:04;20.25;;;7.70;;
70866;SDS011;58487;53.474;49.470;2023-02-08T06:28:30;29.88;;;8.68;;
70866;SDS011;58487;53.474;49.470;2023-02-08T06:30:56;45.00;;;15.47;;
70866;SDS011;58487;53.474;49.470;2023-02-08T06:33:22;35.38;;;11.85;;
70866;SDS011;58487;53.474;49.470;2023-02-08T06:35:50;30.35;;;9.50;;
70866;SDS011;58487;53.474;49.470;2023-02-08T06:38:16;25.92;;;8.35;;
70866;SDS011;58487;53.474;49.470;2023-02-08T06:40:45;31.88;;;10.48;;
70866;SDS011;58487;53.474;49.470;2023-02-08T06:43:12;28.93;;;9.80;;
70866;SDS011;58487;53.474;49.470;2023-02-08T06:45:38;32.95;;;9.73;;
70866;SDS011;58487;53.474;49.470;2023-02-08T06:48:05;26.80;;;10.35;;
70866;SDS011;58487;53.474;49.470;2023-02-08T06:50:31;23.48;;;8.57;;
70866;SDS011;58487;53.474;49.470;2023-02-08T06:52:57;28.55;;;8.10;;
70866;SDS011;58487;53.474;49.470;2023-02-08T06:55:23;30.53;;;10.93;;
70866;SDS011;58487;53.474;49.470;2023-02-08T06:57:52;28.23;;;9.60;;
70866;SDS011;58487;53.474;49.470;2023-02-08T07:00:18;30.42;;;9.02;;
70866;SDS011;58487;53.474;49.470;2023-02-08T07:02:44;32.95;;;8.68;;
70866;SDS011;58487;53.474;49.470;2023-02-08T07:05:12;29.60;;;8.70;;
70866;SDS011;58487;53.474;49.470;2023-02-08T07:07:39;26.33;;;9.60;;
70866;SDS011;58487;53.474;49.470;2023-02-08T07:10:05;27.45;;;8.77;;
70866;SDS011;58487;53.474;49.470;2023-02-08T07:12:32;39.08;;;10.85;;
70866;SDS011;58487;53.474;49.470;2023-02-08T07:14:59;32.80;;;11.90;;
70866;SDS011;58487;53.474;49.470;2023-02-08T07:17:25;32.05;;;10.77;;
70866;SDS011;58487;53.474;49.470;2023-02-08T07:19:52;34.60;;;11.63;;
70866;SDS011;58487;53.474;49.470;2023-02-08T07:22:18;36.38;;;11.80;;
70866;SDS011;58487;53.474;49.470;2023-02-08T07:24:44;33.67;;;10.40;;
70866;SDS011;58487;53.474;49.470;2023-02-08T07:27:10;28.45;;;9.02;;
70866;SDS011;58487;53.474;49.470;2023-02-08T07:29:38;25.40;;;9.18;;
70866;SDS011;58487;53.474;49.470;2023-02-08T07:32:05;24.77;;;8.80;;
70866;SDS011;58487;53.474;49.470;2023-02-08T07:34:33;28.33;;;10.07;;
70866;SDS011;58487;53.474;49.470;2023-02-08T07:37:01;24.30;;;9.35;;
70866;SDS011;58487;53.474;49.470;2023-02-08T07:39:28;28.98;;;9.32;;
70866;SDS011;58487;53.474;49.470;2023-02-08T07:41:56;27.15;;;8.25;;
70866;SDS011;58487;53.474;49.470;2023-02-08T07:44:22;30.87;;;8.30;;
70866;SDS011;58487;53.474;49.470;2023-02-08T07:46:48;24.70;;;7.93;;
70866;SDS011;58487;53.474;49.470;2023-02-08T07:49:14;26.05;;;9.35;;
70866;SDS011;58487;53.474;49.470;2023-02-08T07:51:41;25.83;;;8.57;;
70866;SDS011;58487;53.474;49.470;2023-02-08T07:54:07;26.15;;;8.90;;
70866;SDS011;58487;53.474;49.470;2023-02-08T07:56:33;23.10;;;8.37;;
70866;SDS011;58487;53.474;49.470;2023-02-08T07:58:59;28.95;;;9.38;;
70866;SDS011;58487;53.474;49.470;2023-02-08T08:01:25;25.73;;;8.55;;
70866;SDS011;58487;53.474;49.470;2023-02-08T08:03:52;22.40;;;7.78;;
70866;SDS011;58487;53.474;49.470;2023-02-08T08:06:18;32.10;;;8.98;;
70866;SDS011;58487;53.474;49.470;2023-02-08T08:08:45;21.47;;;8.50;;
70866;SDS011;58487;53.474;49.470;2023-02-08T08:11:15;27.20;;;9.18;;
70866;SDS011;58487;53.474;49.470;2023-02-08T08:13:43;31.33;;;10.88;;
70866;SDS011;58487;53.474;49.470;2023-02-08T08:16:09;37.58;;;11.77;;
70866;SDS011;58487;53.474;49.470;2023-02-08T08:18:35;28.88;;;9.23;;
70866;SDS011;58487;53.474;49.470;2023-02-08T08:21:01;37.70;;;11.80;;
70866;SDS011;58487;53.474;49.470;2023-02-08T08:23:28;31.23;;;10.70;;
70866;SDS011;58487;53.474;49.470;2023-02-08T08:25:54;36.78;;;11.15;;
70866;SDS011;58487;53.474;49.470;2023-02-08T08:28:20;25.27;;;9.48;;
70866;SDS011;58487;53.474;49.470;2023-02-08T08:30:46;31.77;;;10.18;;
70866;SDS011;58487;53.474;49.470;2023-02-08T08:33:12;36.80;;;11.70;;
70866;SDS011;58487;53.474;49.470;2023-02-08T08:35:39;29.88;;;10.13;;
70866;SDS011;58487;53.474;49.470;2023-02-08T08:38:05;31.73;;;11.00;;
70866;SDS011;58487;53.474;49.470;2023-02-08T08:40:31;31.88;;;9.55;;
70866;SDS011;58487;53.474;49.470;2023-02-08T08:42:57;30.38;;;11.23;;
70866;SDS011;58487;53.474;49.470;2023-02-08T08:45:23;30.00;;;11.23;;
70866;SDS011;58487;53.474;49.470;2023-02-08T08:47:49;31.15;;;11.05;;
70866;SDS011;58487;53.474;49.470;2023-02-08T08:50:15;27.83;;;9.60;;
70866;SDS011;58487;53.474;49.470;2023-02-08T08:52:41;28.70;;;9.82;;
70866;SDS011;58487;53.474;49.470;2023-02-08T08:55:08;36.90;;;11.52;;
70866;SDS011;58487;53.474;49.470;2023-02-08T08:57:34;31.47;;;11.90;;
70866;SDS011;58487;53.474;49.470;2023-02-08T09:00:00;37.42;;;13.65;;
70866;SDS011;58487;53.474;49.470;2023-02-08T09:02:26;34.25;;;12.52;;
70866;SDS011;58487;53.474;49.470;2023-02-08T09:04:52;32.65;;;12.63;;
70866;SDS011;58487;53.474;49.470;2023-02-08T09:07:18;34.10;;;12.85;;
70866;SDS011;58487;53.474;49.470;2023-02-08T09:09:44;37.83;;;12.90;;
70866;SDS011;58487;53.474;49.470;2023-02-08T09:12:13;36.00;;;12.15;;
70866;SDS011;58487;53.474;49.470;2023-02-08T09:14:40;31.13;;;11.10;;
70866;SDS011;58487;53.474;49.470;2023-02-08T09:17:09;29.38;;;10.00;;
70866;SDS011;58487;53.474;49.470;2023-02-08T09:19:36;22.40;;;8.55;;
70866;SDS011;58487;53.474;49.470;2023-02-08T09:22:04;18.10;;;5.57;;
70866;SDS011;58487;53.474;49.470;2023-02-08T09:24:31;20.10;;;7.85;;
70866;SDS011;58487;53.474;49.470;2023-02-08T09:26:58;22.83;;;9.52;;
70866;SDS011;58487;53.474;49.470;2023-02-08T09:29:24;21.85;;;8.45;;
70866;SDS011;58487;53.474;49.470;2023-02-08T09:31:53;18.42;;;7.20;;
70866;SDS011;58487;53.474;49.470;2023-02-08T09:34:20;16.97;;;6.40;;
70866;SDS011;58487;53.474;49.470;2023-02-08T09:36:46;21.75;;;7.50;;
70866;SDS011;58487;53.474;49.470;2023-02-08T09:39:13;26.27;;;8.70;;
70866;SDS011;58487;53.474;49.470;2023-02-08T09:47:19;23.57;;;7.33;;
70866;SDS011;58487;53.474;49.470;2023-02-08T09:52:32;25.77;;;9.88;;
70866;SDS011;58487;53.474;49.470;2023-02-08T10:00:50;29.90;;;10.43;;
70866;SDS011;58487;53.474;49.470;2023-02-08T10:03:52;27.42;;;9.57;;
70866;SDS011;58487;53.474;49.470;2023-02-08T10:06:12;35.42;;;11.85;;
70866;SDS011;58487;53.474;49.470;2023-02-08T10:08:41;32.33;;;11.57;;
70866;SDS011;58487;53.474;49.470;2023-02-08T10:14:03;30.60;;;11.87;;
70866;SDS011;58487;53.474;49.470;2023-02-08T10:31:06;30.08;;;10.77;;
70866;SDS011;58487;53.474;49.470;2023-02-08T10:34:02;28.13;;;10.48;;
70866;SDS011;58487;53.474;49.470;2023-02-08T10:36:35;34.50;;;10.30;;
70866;SDS011;58487;53.474;49.470;2023-02-08T10:39:28;26.17;;;9.88;;
70866;SDS011;58487;53.474;49.470;2023-02-08T10:42:00;26.23;;;8.47;;
70866;SDS011;58487;53.474;49.470;2023-02-08T10:47:04;21.50;;;8.70;;
70866;SDS011;58487;53.474;49.470;2023-02-08T10:50:00;22.92;;;8.77;;
70866;SDS011;58487;53.474;49.470;2023-02-08T10:52:26;21.73;;;8.40;;
70866;SDS011;58487;53.474;49.470;2023-02-08T10:54:53;22.27;;;7.90;;
70866;SDS011;58487;53.474;49.470;2023-02-08T10:57:23;24.40;;;8.35;;
70866;SDS011;58487;53.474;49.470;2023-02-08T11:00:13;22.33;;;8.95;;
70866;SDS011;58487;53.474;49.470;2023-02-08T11:02:46;23.45;;;8.38;;
70866;SDS011;58487;53.474;49.470;2023-02-08T11:05:30;27.55;;;10.50;;
70866;SDS011;58487;53.474;49.470;2023-02-08T11:08:07;25.93;;;8.43;;
70866;SDS011;58487;53.474;49.470;2023-02-08T11:10:36;26.40;;;8.60;;
70866;SDS011;58487;53.474;49.470;2023-02-08T11:15:42;21.80;;;7.93;;
70866;SDS011;58487;53.474;49.470;2023-02-08T11:18:22;23.85;;;7.55;;
70866;SDS011;58487;53.474;49.470;2023-02-08T11:20:49;16.47;;;6.87;;
70866;SDS011;58487;53.474;49.470;2023-02-08T11:23:47;17.98;;;7.15;;
70866;SDS011;58487;53.474;49.470;2023-02-08T11:26:18;21.65;;;6.93;;
70866;SDS011;58487;53.474;49.470;2023-02-08T11:34:35;19.17;;;6.93;;
70866;SDS011;58487;53.474;49.470;2023-02-08T11:37:14;16.15;;;5.68;;
70866;SDS011;58487;53.474;49.470;2023-02-08T11:39:49;13.23;;;4.68;;
70866;SDS011;58487;53.474;49.470;2023-02-08T11:42:29;14.95;;;5.85;;
70866;SDS011;58487;53.474;49.470;2023-02-08T11:44:59;12.48;;;4.72;;
70866;SDS011;58487;53.474;49.470;2023-02-08T11:47:30;13.97;;;5.20;;
70866;SDS011;58487;53.474;49.470;2023-02-08T11:50:02;13.63;;;5.32;;
70866;SDS011;58487;53.474;49.470;2023-02-08T11:52:32;12.50;;;4.93;;
70866;SDS011;58487;53.474;49.470;2023-02-08T11:55:12;9.75;;;4.07;;
70866;SDS011;58487;53.474;49.470;2023-02-08T11:57:52;11.88;;;4.57;;
70866;SDS011;58487;53.474;49.470;2023-02-08T12:00:30;11.07;;;4.43;;
70866;SDS011;58487;53.474;49.470;2023-02-08T12:03:02;15.55;;;5.57;;
70866;SDS011;58487;53.474;49.470;2023-02-08T12:10:56;11.98;;;4.45;;
70866;SDS011;58487;53.474;49.470;2023-02-08T12:16:20;13.20;;;4.47;;
70866;SDS011;58487;53.474;49.470;2023-02-08T12:22:13;15.38;;;5.30;;
70866;SDS011;58487;53.474;49.470;2023-02-08T12:41:43;13.70;;;4.00;;
70866;SDS011;58487;53.474;49.470;2023-02-08T12:46:43;15.65;;;6.75;;
70866;SDS011;58487;53.474;49.470;2023-02-08T12:49:21;16.60;;;6.18;;
70866;SDS011;58487;53.474;49.470;2023-02-08T12:54:45;13.57;;;5.00;;
70866;SDS011;58487;53.474;49.470;2023-02-08T12:57:20;18.05;;;7.18;;
70866;SDS011;58487;53.474;49.470;2023-02-08T12:59:54;17.90;;;6.53;;
70866;SDS011;58487;53.474;49.470;2023-02-08T13:04:59;21.17;;;7.05;;
70866;SDS011;58487;53.474;49.470;2023-02-08T13:07:32;19.97;;;6.90;;
70866;SDS011;58487;53.474;49.470;2023-02-08T13:12:43;17.35;;;5.93;;
70866;SDS011;58487;53.474;49.470;2023-02-08T13:17:59;11.85;;;4.63;;
70866;SDS011;58487;53.474;49.470;2023-02-08T13:26:00;20.15;;;5.75;;
70866;SDS011;58487;53.474;49.470;2023-02-08T13:28:29;15.57;;;6.20;;
70866;SDS011;58487;53.474;49.470;2023-02-08T13:30:59;10.02;;;3.95;;
70866;SDS011;58487;53.474;49.470;2023-02-08T13:36:21;12.00;;;4.07;;
70866;SDS011;58487;53.474;49.470;2023-02-08T13:38:51;14.52;;;5.60;;
70866;SDS011;58487;53.474;49.470;2023-02-08T13:41:18;13.15;;;4.90;;
70866;SDS011;58487;53.474;49.470;2023-02-08T13:47:02;17.77;;;5.73;;
70866;SDS011;58487;53.474;49.470;2023-02-08T13:57:56;12.60;;;5.18;;
70866;SDS011;58487;53.474;49.470;2023-02-08T14:00:28;10.97;;;4.23;;
70866;SDS011;58487;53.474;49.470;2023-02-08T14:02:58;13.15;;;3.55;;
70866;SDS011;58487;53.474;49.470;2023-02-08T14:08:58;14.70;;;5.10;;
70866;SDS011;58487;53.474;49.470;2023-02-08T14:19:35;14.75;;;5.43;;
70866;SDS011;58487;53.474;49.470;2023-02-08T14:24:58;18.73;;;6.15;;
70866;SDS011;58487;53.474;49.470;2023-02-08T14:27:32;15.27;;;5.73;;
70866;SDS011;58487;53.474;49.470;2023-02-08T14:32:42;12.48;;;4.07;;
70866;SDS011;58487;53.474;49.470;2023-02-08T14:37:45;11.05;;;3.70;;
70866;SDS011;58487;53.474;49.470;2023-02-08T14:45:29;10.13;;;3.38;;
70866;SDS011;58487;53.474;49.470;2023-02-08T14:48:04;15.77;;;4.43;;
70866;SDS011;58487;53.474;49.470;2023-02-08T14:50:40;12.77;;;4.50;;
70866;SDS011;58487;53.474;49.470;2023-02-08T14:53:22;13.43;;;5.07;;
70866;SDS011;58487;53.474;49.470;2023-02-08T14:56:02;15.45;;;4.95;;
70866;SDS011;58487;53.474;49.470;2023-02-08T14:58:41;14.50;;;4.88;;
70866;SDS011;58487;53.474;49.470;2023-02-08T15:01:16;14.30;;;5.43;;
70866;SDS011;58487;53.474;49.470;2023-02-08T15:03:49;16.80;;;5.38;;
70866;SDS011;58487;53.474;49.470;2023-02-08T15:08:48;11.55;;;4.72;;
70866;SDS011;58487;53.474;49.470;2023-02-08T15:11:19;17.15;;;6.22;;
70866;SDS011;58487;53.474;49.470;2023-02-08T15:13:49;13.90;;;4.75;;
70866;SDS011;58487;53.474;49.470;2023-02-08T15:16:17;13.27;;;4.80;;
70866;SDS011;58487;53.474;49.470;2023-02-08T15:18:44;15.20;;;5.87;;
70866;SDS011;58487;53.474;49.470;2023-02-08T15:21:18;14.00;;;5.03;;
70866;SDS011;58487;53.474;49.470;2023-02-08T15:24:00;14.07;;;5.03;;
70866;SDS011;58487;53.474;49.470;2023-02-08T15:26:28;14.63;;;4.65;;
70866;SDS011;58487;53.474;49.470;2023-02-08T15:28:56;12.50;;;5.00;;
70866;SDS011;58487;53.474;49.470;2023-02-08T15:31:25;16.57;;;5.70;;
70866;SDS011;58487;53.474;49.470;2023-02-08T15:33:57;13.68;;;5.40;;
70866;SDS011;58487;53.474;49.470;2023-02-08T15:36:29;15.68;;;4.78;;
70866;SDS011;58487;53.474;49.470;2023-02-08T15:38:58;15.02;;;5.13;;
70866;SDS011;58487;53.474;49.470;2023-02-08T15:41:29;17.60;;;5.93;;
70866;SDS011;58487;53.474;49.470;2023-02-08T15:44:06;12.63;;;4.70;;
70866;SDS011;58487;53.474;49.470;2023-02-08T15:46:37;17.55;;;5.38;;
70866;SDS011;58487;53.474;49.470;2023-02-08T15:49:04;20.08;;;5.75;;
70866;SDS011;58487;53.474;49.470;2023-02-08T15:51:30;10.05;;;3.42;;
70866;SDS011;58487;53.474;49.470;2023-02-08T15:53:57;14.73;;;4.90;;
70866;SDS011;58487;53.474;49.470;2023-02-08T15:56:31;14.60;;;5.83;;
70866;SDS011;58487;53.474;49.470;2023-02-08T15:59:00;20.90;;;3.05;;
70866;SDS011;58487;53.474;49.470;2023-02-08T16:01:28;15.23;;;5.13;;
70866;SDS011;58487;53.474;49.470;2023-02-08T16:03:57;14.00;;;5.47;;
70866;SDS011;58487;53.474;49.470;2023-02-08T16:06:31;14.90;;;4.80;;
70866;SDS011;58487;53.474;49.470;2023-02-08T16:09:02;10.17;;;3.80;;
70866;SDS011;58487;53.474;49.470;2023-02-08T16:11:29;17.35;;;5.88;;
70866;SDS011;58487;53.474;49.470;2023-02-08T16:13:58;18.27;;;6.05;;
70866;SDS011;58487;53.474;49.470;2023-02-08T16:19:03;19.05;;;6.55;;
70866;SDS011;58487;53.474;49.470;2023-02-08T16:21:36;13.33;;;4.77;;
70866;SDS011;58487;53.474;49.470;2023-02-08T16:24:05;12.65;;;3.70;;
70866;SDS011;58487;53.474;49.470;2023-02-08T16:26:43;16.15;;;5.47;;
70866;SDS011;58487;53.474;49.470;2023-02-08T16:34:49;8.00;;;3.27;;
70866;SDS011;58487;53.474;49.470;2023-02-08T16:37:21;15.27;;;5.05;;
70866;SDS011;58487;53.474;49.470;2023-02-08T16:40:54;14.27;;;4.53;;
70866;SDS011;58487;53.474;49.470;2023-02-08T16:45:44;12.20;;;4.05;;
70866;SDS011;58487;53.474;49.470;2023-02-08T16:48:32;12.87;;;3.87;;
70866;SDS011;58487;53.474;49.470;2023-02-08T16:51:04;12.25;;;3.83;;
70866;SDS011;58487;53.474;49.470;2023-02-08T16:53:32;13.82;;;5.63;;
70866;SDS011;58487;53.474;49.470;2023-02-08T16:55:59;18.83;;;5.63;;
70866;SDS011;58487;53.474;49.470;2023-02-08T16:58:25;15.70;;;5.03;;
70866;SDS011;58487;53.474;49.470;2023-02-08T17:00:52;9.27;;;3.37;;
70866;SDS011;58487;53.474;49.470;2023-02-08T17:03:18;17.45;;;5.35;;
70866;SDS011;58487;53.474;49.470;2023-02-08T17:05:44;18.33;;;4.85;;
70866;SDS011;58487;53.474;49.470;2023-02-08T17:08:13;14.05;;;5.15;;
70866;SDS011;58487;53.474;49.470;2023-02-08T17:10:41;20.42;;;6.25;;
70866;SDS011;58487;53.474;49.470;2023-02-08T17:13:09;13.00;;;4.60;;
70866;SDS011;58487;53.474;49.470;2023-02-08T17:15:36;12.38;;;4.57;;
70866;SDS011;58487;53.474;49.470;2023-02-08T17:18:03;14.93;;;5.38;;
70866;SDS011;58487;53.474;49.470;2023-02-08T17:20:31;15.48;;;6.07;;
70866;SDS011;58487;53.474;49.470;2023-02-08T17:22:59;11.30;;;4.45;;
70866;SDS011;58487;53.474;49.470;2023-02-08T17:25:27;14.30;;;4.90;;
70866;SDS011;58487;53.474;49.470;2023-02-08T17:27:55;10.70;;;3.65;;
70866;SDS011;58487;53.474;49.470;2023-02-08T17:30:34;18.27;;;5.93;;
70866;SDS011;58487;53.474;49.470;2023-02-08T17:33:02;13.43;;;4.43;;
70866;SDS011;58487;53.474;49.470;2023-02-08T17:35:28;11.45;;;4.13;;
70866;SDS011;58487;53.474;49.470;2023-02-08T17:37:56;17.67;;;5.83;;
70866;SDS011;58487;53.474;49.470;2023-02-08T17:40:28;15.90;;;5.35;;
70866;SDS011;58487;53.474;49.470;2023-02-08T17:42:57;8.70;;;3.67;;
70866;SDS011;58487;53.474;49.470;2023-02-08T17:45:24;15.23;;;5.18;;
70866;SDS011;58487;53.474;49.470;2023-02-08T17:47:51;17.15;;;6.00;;
70866;SDS011;58487;53.474;49.470;2023-02-08T17:50:18;15.20;;;5.40;;
70866;SDS011;58487;53.474;49.470;2023-02-08T17:52:46;16.67;;;5.63;;
70866;SDS011;58487;53.474;49.470;2023-02-08T17:55:13;12.82;;;4.65;;
70866;SDS011;58487;53.474;49.470;2023-02-08T17:57:40;18.42;;;6.38;;
70866;SDS011;58487;53.474;49.470;2023-02-08T18:00:08;16.85;;;5.45;;
70866;SDS011;58487;53.474;49.470;2023-02-08T18:02:37;13.23;;;5.07;;
70866;SDS011;58487;53.474;49.470;2023-02-08T18:05:07;14.40;;;4.95;;
70866;SDS011;58487;53.474;49.470;2023-02-08T18:07:34;14.85;;;5.90;;
70866;SDS011;58487;53.474;49.470;2023-02-08T18:10:00;16.60;;;5.30;;
70866;SDS011;58487;53.474;49.470;2023-02-08T18:12:28;17.80;;;5.80;;
70866;SDS011;58487;53.474;49.470;2023-02-08T18:14:54;18.33;;;5.80;;
70866;SDS011;58487;53.474;49.470;2023-02-08T18:17:23;18.17;;;5.70;;
70866;SDS011;58487;53.474;49.470;2023-02-08T18:19:49;15.25;;;5.75;;
70866;SDS011;58487;53.474;49.470;2023-02-08T18:22:16;16.23;;;4.97;;
70866;SDS011;58487;53.474;49.470;2023-02-08T18:24:43;16.38;;;6.00;;